sensor_id;sensor_type;location;lat;lon;timestamp;pressure;altitude;pressure_sealevel;temperature;humidity
61573;BME280;47465;43.094;12.434;2023-02-17T00:01:17;100198.72;;;6.14;100.00
61573;BME280;47465;43.094;12.434;2023-02-17T00:03:44;100220.78;;;6.19;100.00
61573;BME280;47465;43.094;12.434;2023-02-17T00:06:14;100199.50;;;6.08;100.00
61573;BME280;47465;43.094;12.434;2023-02-17T00:08:40;100213.03;;;6.33;100.00
61573;BME280;47465;43.094;12.434;2023-02-17T00:11:06;100203.19;;;6.20;100.00
61573;BME280;47465;43.094;12.434;2023-02-17T00:13:33;100213.78;;;6.21;100.00
61573;BME280;47465;43.094;12.434;2023-02-17T00:16:05;100203.91;;;6.08;100.00
61573;BME280;47465;43.094;12.434;2023-02-17T00:18:31;100203.91;;;6.09;100.00
61573;BME280;47465;43.094;12.434;2023-02-17T00:20:57;100204.84;;;6.13;100.00
61573;BME280;47465;43.094;12.434;2023-02-17T00:23:22;100191.63;;;6.10;100.00
61573;BME280;47465;43.094;12.434;2023-02-17T00:25:48;100181.75;;;5.96;100.00
61573;BME280;47465;43.094;12.434;2023-02-17T00:28:14;100211.81;;;6.09;100.00
61573;BME280;47465;43.094;12.434;2023-02-17T00:30:40;100186.06;;;5.93;100.00
61573;BME280;47465;43.094;12.434;2023-02-17T00:33:07;100208.34;;;6.10;100.00
61573;BME280;47465;43.094;12.434;2023-02-17T00:35:33;100180.78;;;5.93;100.00
61573;BME280;47465;43.094;12.434;2023-02-17T00:38:03;100197.78;;;6.10;100.00
61573;BME280;47465;43.094;12.434;2023-02-17T00:40:29;100192.38;;;6.01;100.00
61573;BME280;47465;43.094;12.434;2023-02-17T00:42:54;100194.97;;;6.00;100.00
61573;BME280;47465;43.094;12.434;2023-02-17T00:45:20;100191.41;;;5.94;100.00
61573;BME280;47465;43.094;12.434;2023-02-17T00:47:46;100186.91;;;5.90;100.00
61573;BME280;47465;43.094;12.434;2023-02-17T00:50:13;100213.56;;;6.06;100.00
61573;BME280;47465;43.094;12.434;2023-02-17T00:52:39;100195.69;;;5.91;100.00
61573;BME280;47465;43.094;12.434;2023-02-17T00:55:06;100215.47;;;6.16;100.00
61573;BME280;47465;43.094;12.434;2023-02-17T00:57:32;100212.72;;;6.08;100.00
61573;BME280;47465;43.094;12.434;2023-02-17T00:59:57;100187.03;;;5.96;100.00
61573;BME280;47465;43.094;12.434;2023-02-17T01:02:23;100177.44;;;6.03;100.00
61573;BME280;47465;43.094;12.434;2023-02-17T01:04:49;100184.38;;;5.96;100.00
61573;BME280;47465;43.094;12.434;2023-02-17T01:07:17;100175.47;;;5.91;100.00
61573;BME280;47465;43.094;12.434;2023-02-17T01:09:42;100205.63;;;6.06;100.00
61573;BME280;47465;43.094;12.434;2023-02-17T01:12:10;100187.00;;;5.95;100.00
61573;BME280;47465;43.094;12.434;2023-02-17T01:14:38;100179.81;;;5.86;100.00
61573;BME280;47465;43.094;12.434;2023-02-17T01:17:13;100175.44;;;5.88;100.00
61573;BME280;47465;43.094;12.434;2023-02-17T01:19:39;100166.56;;;5.85;100.00
61573;BME280;47465;43.094;12.434;2023-02-17T01:22:05;100197.75;;;6.07;100.00
61573;BME280;47465;43.094;12.434;2023-02-17T01:24:32;100177.44;;;6.03;100.00
61573;BME280;47465;43.094;12.434;2023-02-17T01:26:58;100179.00;;;5.93;100.00
61573;BME280;47465;43.094;12.434;2023-02-17T01:29:24;100176.44;;;5.95;100.00
61573;BME280;47465;43.094;12.434;2023-02-17T01:31:50;100150.78;;;5.89;100.00
61573;BME280;47465;43.094;12.434;2023-02-17T01:34:15;100165.81;;;5.93;100.00
61573;BME280;47465;43.094;12.434;2023-02-17T01:36:41;100173.84;;;6.00;100.00
61573;BME280;47465;43.094;12.434;2023-02-17T01:39:08;100162.22;;;5.88;100.00
61573;BME280;47465;43.094;12.434;2023-02-17T01:41:36;100134.84;;;5.80;100.00
61573;BME280;47465;43.094;12.434;2023-02-17T01:44:11;100140.13;;;5.80;100.00
61573;BME280;47465;43.094;12.434;2023-02-17T01:46:40;100141.88;;;5.80;100.00
61573;BME280;47465;43.094;12.434;2023-02-17T01:49:16;100148.97;;;5.85;100.00
61573;BME280;47465;43.094;12.434;2023-02-17T01:51:47;100166.75;;;5.95;100.00
61573;BME280;47465;43.094;12.434;2023-02-17T01:54:17;100144.53;;;5.83;100.00
61573;BME280;47465;43.094;12.434;2023-02-17T01:56:47;100149.97;;;5.93;100.00
61573;BME280;47465;43.094;12.434;2023-02-17T01:59:17;100160.88;;;6.16;100.00
61573;BME280;47465;43.094;12.434;2023-02-17T02:01:44;100148.41;;;6.03;100.00
61573;BME280;47465;43.094;12.434;2023-02-17T02:04:11;100159.00;;;6.08;100.00
61573;BME280;47465;43.094;12.434;2023-02-17T02:06:40;100169.66;;;6.15;100.00
61573;BME280;47465;43.094;12.434;2023-02-17T02:09:10;100137.81;;;6.02;100.00
61573;BME280;47465;43.094;12.434;2023-02-17T02:11:37;100159.31;;;6.32;100.00
61573;BME280;47465;43.094;12.434;2023-02-17T02:14:06;100138.03;;;6.20;100.00
61573;BME280;47465;43.094;12.434;2023-02-17T02:16:41;100137.94;;;6.12;100.00
61573;BME280;47465;43.094;12.434;2023-02-17T02:19:20;100151.22;;;6.19;100.00
61573;BME280;47465;43.094;12.434;2023-02-17T02:22:30;100159.59;;;6.55;100.00
61573;BME280;47465;43.094;12.434;2023-02-17T02:25:13;100143.38;;;6.23;100.00
61573;BME280;47465;43.094;12.434;2023-02-17T02:27:52;100137.09;;;6.15;100.00
61573;BME280;47465;43.094;12.434;2023-02-17T02:30:44;100137.09;;;6.15;100.00
61573;BME280;47465;43.094;12.434;2023-02-17T02:33:23;100166.31;;;6.29;100.00
61573;BME280;47465;43.094;12.434;2023-02-17T02:35:56;100147.75;;;6.21;100.00
61573;BME280;47465;43.094;12.434;2023-02-17T02:38:27;100165.38;;;6.24;100.00
61573;BME280;47465;43.094;12.434;2023-02-17T02:41:00;100121.06;;;6.03;100.00
61573;BME280;47465;43.094;12.434;2023-02-17T02:43:29;100149.56;;;6.25;100.00
61573;BME280;47465;43.094;12.434;2023-02-17T02:46:01;100150.41;;;6.23;100.00
61573;BME280;47465;43.094;12.434;2023-02-17T02:48:28;100127.22;;;6.00;100.00
61573;BME280;47465;43.094;12.434;2023-02-17T02:51:02;100129.00;;;6.01;100.00
61573;BME280;47465;43.094;12.434;2023-02-17T02:53:54;100137.88;;;6.08;100.00
61573;BME280;47465;43.094;12.434;2023-02-17T02:56:37;100156.38;;;6.08;100.00
61573;BME280;47465;43.094;12.434;2023-02-17T02:59:17;100145.72;;;6.02;100.00
61573;BME280;47465;43.094;12.434;2023-02-17T03:01:50;100150.09;;;6.00;100.00
61573;BME280;47465;43.094;12.434;2023-02-17T03:04:26;100141.44;;;6.11;100.00
61573;BME280;47465;43.094;12.434;2023-02-17T03:07:00;100131.84;;;6.16;100.00
61573;BME280;47465;43.094;12.434;2023-02-17T03:09:27;100152.94;;;6.15;100.00
61573;BME280;47465;43.094;12.434;2023-02-17T03:11:54;100144.03;;;6.08;100.00
61573;BME280;47465;43.094;12.434;2023-02-17T03:14:21;100152.03;;;6.13;100.00
61573;BME280;47465;43.094;12.434;2023-02-17T03:16:48;100121.06;;;6.00;100.00
61573;BME280;47465;43.094;12.434;2023-02-17T03:19:17;100121.06;;;6.01;100.00
61573;BME280;47465;43.094;12.434;2023-02-17T03:21:47;100121.03;;;5.98;100.00
61573;BME280;47465;43.094;12.434;2023-02-17T03:24:14;100112.19;;;5.94;100.00
61573;BME280;47465;43.094;12.434;2023-02-17T03:26:40;100120.34;;;6.13;100.00
61573;BME280;47465;43.094;12.434;2023-02-17T03:29:06;100133.59;;;6.16;100.00
61573;BME280;47465;43.094;12.434;2023-02-17T03:31:33;100133.44;;;6.04;100.00
61573;BME280;47465;43.094;12.434;2023-02-17T03:33:59;100123.72;;;6.03;100.00
61573;BME280;47465;43.094;12.434;2023-02-17T03:36:25;100126.34;;;6.03;100.00
61573;BME280;47465;43.094;12.434;2023-02-17T03:38:52;100115.63;;;5.92;100.00
61573;BME280;47465;43.094;12.434;2023-02-17T03:41:18;100125.38;;;5.96;100.00
61573;BME280;47465;43.094;12.434;2023-02-17T03:43:44;100155.47;;;6.06;100.00
61573;BME280;47465;43.094;12.434;2023-02-17T03:46:11;100117.28;;;5.84;100.00
61573;BME280;47465;43.094;12.434;2023-02-17T03:48:37;100121.81;;;5.92;100.00
61573;BME280;47465;43.094;12.434;2023-02-17T03:51:09;100135.31;;;6.12;100.00
61573;BME280;47465;43.094;12.434;2023-02-17T03:53:35;100119.16;;;5.92;100.00
61573;BME280;47465;43.094;12.434;2023-02-17T03:56:02;100142.25;;;6.06;100.00
61573;BME280;47465;43.094;12.434;2023-02-17T03:58:28;100130.69;;;5.97;100.00
61573;BME280;47465;43.094;12.434;2023-02-17T04:00:54;100138.66;;;6.01;100.00
61573;BME280;47465;43.094;12.434;2023-02-17T04:03:20;100136.91;;;6.01;100.00
61573;BME280;47465;43.094;12.434;2023-02-17T04:05:46;100129.84;;;5.99;100.00
61573;BME280;47465;43.094;12.434;2023-02-17T04:08:12;100128.09;;;6.01;100.00
61573;BME280;47465;43.094;12.434;2023-02-17T04:10:37;100127.09;;;5.94;100.00
61573;BME280;47465;43.094;12.434;2023-02-17T04:13:05;100140.34;;;5.95;100.00
61573;BME280;47465;43.094;12.434;2023-02-17T04:15:31;100123.41;;;5.83;100.00
61573;BME280;47465;43.094;12.434;2023-02-17T04:17:56;100130.66;;;5.96;100.00
61573;BME280;47465;43.094;12.434;2023-02-17T04:20:22;100119.94;;;5.84;100.00
61573;BME280;47465;43.094;12.434;2023-02-17T04:22:48;100126.09;;;5.84;100.00
61573;BME280;47465;43.094;12.434;2023-02-17T04:25:14;100138.47;;;5.88;100.00
61573;BME280;47465;43.094;12.434;2023-02-17T04:27:40;100141.16;;;5.90;100.00
61573;BME280;47465;43.094;12.434;2023-02-17T04:30:09;100141.25;;;5.94;100.00
61573;BME280;47465;43.094;12.434;2023-02-17T04:32:35;100128.72;;;5.84;100.00
61573;BME280;47465;43.094;12.434;2023-02-17T04:35:00;100131.31;;;5.81;100.00
61573;BME280;47465;43.094;12.434;2023-02-17T04:37:26;100126.06;;;5.83;100.00
61573;BME280;47465;43.094;12.434;2023-02-17T04:39:52;100141.94;;;5.84;100.00
61573;BME280;47465;43.094;12.434;2023-02-17T04:42:18;100137.72;;;5.95;100.00
61573;BME280;47465;43.094;12.434;2023-02-17T04:44:44;100140.34;;;5.95;100.00
61573;BME280;47465;43.094;12.434;2023-02-17T04:47:11;100128.66;;;5.81;100.00
61573;BME280;47465;43.094;12.434;2023-02-17T04:49:37;100149.06;;;5.91;100.00
61573;BME280;47465;43.094;12.434;2023-02-17T04:52:03;100134.00;;;5.84;100.00
61573;BME280;47465;43.094;12.434;2023-02-17T04:54:29;100136.66;;;5.84;100.00
61573;BME280;47465;43.094;12.434;2023-02-17T04:56:55;100155.19;;;5.89;100.00
61573;BME280;47465;43.094;12.434;2023-02-17T04:59:21;100147.31;;;5.90;100.00
61573;BME280;47465;43.094;12.434;2023-02-17T05:01:47;100157.88;;;5.90;100.00
61573;BME280;47465;43.094;12.434;2023-02-17T05:04:14;100151.69;;;5.91;100.00
61573;BME280;47465;43.094;12.434;2023-02-17T05:06:40;100153.44;;;5.88;100.00
61573;BME280;47465;43.094;12.434;2023-02-17T05:09:06;100151.81;;;5.97;100.00
61573;BME280;47465;43.094;12.434;2023-02-17T05:11:32;100134.22;;;5.98;100.00
61573;BME280;47465;43.094;12.434;2023-02-17T05:13:58;100127.22;;;5.99;100.00
61573;BME280;47465;43.094;12.434;2023-02-17T05:16:24;100143.25;;;6.15;100.00
61573;BME280;47465;43.094;12.434;2023-02-17T05:18:50;100141.56;;;6.21;100.00
61573;BME280;47465;43.094;12.434;2023-02-17T05:21:17;100137.06;;;6.12;100.00
61573;BME280;47465;43.094;12.434;2023-02-17T05:23:43;100138.72;;;6.04;100.00
61573;BME280;47465;43.094;12.434;2023-02-17T05:26:09;100140.34;;;5.95;100.00
61573;BME280;47465;43.094;12.434;2023-02-17T05:28:36;100155.38;;;6.00;100.00
61573;BME280;47465;43.094;12.434;2023-02-17T05:31:02;100142.91;;;5.91;100.00
61573;BME280;47465;43.094;12.434;2023-02-17T05:33:28;100142.00;;;5.89;100.00
61573;BME280;47465;43.094;12.434;2023-02-17T05:35:55;100163.25;;;5.98;100.00
61573;BME280;47465;43.094;12.434;2023-02-17T05:38:22;100155.34;;;5.98;100.00
61573;BME280;47465;43.094;12.434;2023-02-17T05:40:49;100143.03;;;5.97;100.00
61573;BME280;47465;43.094;12.434;2023-02-17T05:43:14;100164.25;;;6.03;100.00
61573;BME280;47465;43.094;12.434;2023-02-17T05:45:40;100157.97;;;5.98;100.00
61573;BME280;47465;43.094;12.434;2023-02-17T05:48:06;100165.91;;;5.98;100.00
61573;BME280;47465;43.094;12.434;2023-02-17T05:50:32;100163.31;;;6.01;100.00
61573;BME280;47465;43.094;12.434;2023-02-17T05:52:58;100145.56;;;5.92;100.00
61573;BME280;47465;43.094;12.434;2023-02-17T05:55:25;100166.88;;;6.05;100.00
61573;BME280;47465;43.094;12.434;2023-02-17T05:57:51;100176.75;;;6.18;100.00
61573;BME280;47465;43.094;12.434;2023-02-17T06:00:17;100167.06;;;6.17;100.00
61573;BME280;47465;43.094;12.434;2023-02-17T06:02:43;100174.22;;;6.26;100.00
61573;BME280;47465;43.094;12.434;2023-02-17T06:05:08;100168.78;;;6.15;100.00
61573;BME280;47465;43.094;12.434;2023-02-17T06:07:34;100150.13;;;6.01;100.00
61573;BME280;47465;43.094;12.434;2023-02-17T06:10:00;100177.66;;;6.19;100.00
61573;BME280;47465;43.094;12.434;2023-02-17T06:12:30;100161.66;;;6.09;100.00
61573;BME280;47465;43.094;12.434;2023-02-17T06:14:58;100168.84;;;6.20;100.00
61573;BME280;47465;43.094;12.434;2023-02-17T06:17:24;100173.41;;;6.31;100.00
61573;BME280;47465;43.094;12.434;2023-02-17T06:19:50;100162.72;;;6.24;100.00
61573;BME280;47465;43.094;12.434;2023-02-17T06:22:19;100170.63;;;6.22;100.00
61573;BME280;47465;43.094;12.434;2023-02-17T06:24:44;100175.91;;;6.22;100.00
61573;BME280;47465;43.094;12.434;2023-02-17T06:27:10;100191.00;;;6.29;100.00
61573;BME280;47465;43.094;12.434;2023-02-17T06:29:38;100165.34;;;6.21;100.00
61573;BME280;47465;43.094;12.434;2023-02-17T06:32:04;100176.00;;;6.27;100.00
61573;BME280;47465;43.094;12.434;2023-02-17T06:34:30;100172.47;;;6.28;100.00
61573;BME280;47465;43.094;12.434;2023-02-17T06:36:55;100170.81;;;6.36;100.00
61573;BME280;47465;43.094;12.434;2023-02-17T06:39:25;100200.13;;;6.56;100.00
61573;BME280;47465;43.094;12.434;2023-02-17T06:41:51;100191.22;;;6.46;100.00
61573;BME280;47465;43.094;12.434;2023-02-17T06:44:17;100201.84;;;6.51;100.00
61573;BME280;47465;43.094;12.434;2023-02-17T06:46:44;100186.91;;;6.56;100.00
61573;BME280;47465;43.094;12.434;2023-02-17T06:49:13;100178.41;;;6.82;100.00
61573;BME280;47465;43.094;12.434;2023-02-17T06:51:39;100181.78;;;6.68;99.78
61573;BME280;47465;43.094;12.434;2023-02-17T06:54:05;100190.56;;;6.67;99.69
61573;BME280;47465;43.094;12.434;2023-02-17T06:56:31;100219.59;;;6.66;100.00
61573;BME280;47465;43.094;12.434;2023-02-17T06:58:57;100192.88;;;6.38;100.00
61573;BME280;47465;43.094;12.434;2023-02-17T07:01:24;100198.06;;;6.32;100.00
61573;BME280;47465;43.094;12.434;2023-02-17T07:03:52;100191.13;;;6.42;100.00
61573;BME280;47465;43.094;12.434;2023-02-17T07:06:19;100190.44;;;6.55;100.00
61573;BME280;47465;43.094;12.434;2023-02-17T07:08:45;100206.53;;;6.76;100.00
61573;BME280;47465;43.094;12.434;2023-02-17T07:11:12;100190.63;;;6.70;100.00
61573;BME280;47465;43.094;12.434;2023-02-17T07:13:39;100201.13;;;6.67;99.90
61573;BME280;47465;43.094;12.434;2023-02-17T07:16:06;100195.72;;;6.55;100.00
61573;BME280;47465;43.094;12.434;2023-02-17T07:18:32;100202.81;;;6.61;100.00
61573;BME280;47465;43.094;12.434;2023-02-17T07:21:00;100245.34;;;6.81;99.40
61573;BME280;47465;43.094;12.434;2023-02-17T07:23:26;100200.22;;;6.64;98.58
61573;BME280;47465;43.094;12.434;2023-02-17T07:25:52;100210.94;;;6.76;96.84
61573;BME280;47465;43.094;12.434;2023-02-17T07:28:17;100229.50;;;6.82;97.67
61573;BME280;47465;43.094;12.434;2023-02-17T07:30:44;100234.72;;;6.74;98.73
61573;BME280;47465;43.094;12.434;2023-02-17T07:33:10;100244.47;;;6.80;99.08
61573;BME280;47465;43.094;12.434;2023-02-17T07:35:42;100216.25;;;6.81;98.49
61573;BME280;47465;43.094;12.434;2023-02-17T07:38:10;100236.09;;;7.21;97.34
61573;BME280;47465;43.094;12.434;2023-02-17T07:40:36;100234.38;;;7.26;97.13
61573;BME280;47465;43.094;12.434;2023-02-17T07:43:03;100229.09;;;7.26;95.88
61573;BME280;47465;43.094;12.434;2023-02-17T07:45:28;100230.91;;;7.30;96.36
61573;BME280;47465;43.094;12.434;2023-02-17T07:47:54;100243.31;;;7.36;95.16
61573;BME280;47465;43.094;12.434;2023-02-17T07:50:20;100242.38;;;7.31;94.03
61573;BME280;47465;43.094;12.434;2023-02-17T07:52:46;100233.53;;;7.30;94.36
61573;BME280;47465;43.094;12.434;2023-02-17T07:55:14;100246.94;;;7.44;94.98
61573;BME280;47465;43.094;12.434;2023-02-17T07:57:40;100236.34;;;7.47;95.12
61573;BME280;47465;43.094;12.434;2023-02-17T08:00:07;100236.41;;;7.53;94.64
61573;BME280;47465;43.094;12.434;2023-02-17T08:02:33;100237.34;;;7.60;93.68
61573;BME280;47465;43.094;12.434;2023-02-17T08:04:59;100224.09;;;7.58;94.06
61573;BME280;47465;43.094;12.434;2023-02-17T08:07:25;100229.44;;;7.65;92.30
61573;BME280;47465;43.094;12.434;2023-02-17T08:09:51;100233.94;;;7.75;91.82
61573;BME280;47465;43.094;12.434;2023-02-17T08:12:59;100228.75;;;7.87;91.51
61573;BME280;47465;43.094;12.434;2023-02-17T08:15:59;100236.78;;;8.01;90.96
61573;BME280;47465;43.094;12.434;2023-02-17T08:18:24;100224.47;;;8.08;89.93
61573;BME280;47465;43.094;12.434;2023-02-17T08:20:50;100220.91;;;8.09;89.34
61573;BME280;47465;43.094;12.434;2023-02-17T08:23:19;100247.59;;;8.33;88.87
61573;BME280;47465;43.094;12.434;2023-02-17T08:25:45;100217.47;;;8.20;88.63
61573;BME280;47465;43.094;12.434;2023-02-17T08:28:11;100233.53;;;8.42;88.15
61573;BME280;47465;43.094;12.434;2023-02-17T08:30:37;100206.09;;;8.40;86.63
61573;BME280;47465;43.094;12.434;2023-02-17T08:33:06;100209.72;;;8.51;85.77
61573;BME280;47465;43.094;12.434;2023-02-17T08:35:32;100211.50;;;8.60;84.72
61573;BME280;47465;43.094;12.434;2023-02-17T08:37:58;100233.69;;;8.77;84.03
61573;BME280;47465;43.094;12.434;2023-02-17T08:40:24;100208.00;;;8.61;84.60
61573;BME280;47465;43.094;12.434;2023-02-17T08:42:50;100228.31;;;8.62;83.95
61573;BME280;47465;43.094;12.434;2023-02-17T08:45:16;100227.38;;;8.49;85.72
61573;BME280;47465;43.094;12.434;2023-02-17T08:47:42;100240.63;;;8.49;85.95
61573;BME280;47465;43.094;12.434;2023-02-17T08:50:12;100220.34;;;8.53;85.61
61573;BME280;47465;43.094;12.434;2023-02-17T08:52:41;100215.09;;;8.70;83.32
61573;BME280;47465;43.094;12.434;2023-02-17T08:55:07;100223.94;;;8.73;83.04
61573;BME280;47465;43.094;12.434;2023-02-17T08:57:32;100228.41;;;8.88;82.04
61573;BME280;47465;43.094;12.434;2023-02-17T08:59:59;100242.59;;;9.04;81.91
61573;BME280;47465;43.094;12.434;2023-02-17T09:02:25;100226.69;;;9.04;82.36
61573;BME280;47465;43.094;12.434;2023-02-17T09:04:51;100223.16;;;9.08;82.23
61573;BME280;47465;43.094;12.434;2023-02-17T09:07:18;100233.81;;;9.25;81.88
61573;BME280;47465;43.094;12.434;2023-02-17T09:09:44;100234.69;;;9.30;81.79
61573;BME280;47465;43.094;12.434;2023-02-17T09:12:10;100244.44;;;9.36;80.83
61573;BME280;47465;43.094;12.434;2023-02-17T09:14:35;100269.13;;;8.98;80.43
61573;BME280;47465;43.094;12.434;2023-02-17T09:17:01;100277.13;;;9.19;79.95
61573;BME280;47465;43.094;12.434;2023-02-17T09:19:28;100237.34;;;9.13;80.29
61573;BME280;47465;43.094;12.434;2023-02-17T09:21:54;100240.00;;;9.22;80.69
61573;BME280;47465;43.094;12.434;2023-02-17T09:24:22;100261.28;;;9.50;80.50
61573;BME280;47465;43.094;12.434;2023-02-17T09:26:48;100244.44;;;9.45;79.65
61573;BME280;47465;43.094;12.434;2023-02-17T09:29:16;100269.25;;;9.67;79.01
61573;BME280;47465;43.094;12.434;2023-02-17T09:31:42;100258.66;;;9.76;77.31
61573;BME280;47465;43.094;12.434;2023-02-17T09:34:10;100268.38;;;9.82;77.42
61573;BME280;47465;43.094;12.434;2023-02-17T09:36:37;100259.53;;;9.78;77.98
61573;BME280;47465;43.094;12.434;2023-02-17T09:39:04;100254.22;;;9.86;76.92
61573;BME280;47465;43.094;12.434;2023-02-17T09:41:35;100246.25;;;9.87;77.15
61573;BME280;47465;43.094;12.434;2023-02-17T09:44:04;100260.41;;;10.00;77.00
61573;BME280;47465;43.094;12.434;2023-02-17T09:46:36;100243.56;;;9.97;76.08
61573;BME280;47465;43.094;12.434;2023-02-17T09:49:10;100250.69;;;9.87;75.08
61573;BME280;47465;43.094;12.434;2023-02-17T09:51:41;100265.72;;;10.00;74.51
61573;BME280;47465;43.094;12.434;2023-02-17T09:54:13;100261.31;;;10.02;74.28
61573;BME280;47465;43.094;12.434;2023-02-17T09:56:44;100263.06;;;10.10;74.21
61573;BME280;47465;43.094;12.434;2023-02-17T09:59:17;100241.81;;;10.00;74.66
61573;BME280;47465;43.094;12.434;2023-02-17T10:01:45;100239.13;;;10.14;73.24
61573;BME280;47465;43.094;12.434;2023-02-17T10:04:14;100240.00;;;10.32;73.59
61573;BME280;47465;43.094;12.434;2023-02-17T10:06:45;100260.34;;;10.53;73.42
61573;BME280;47465;43.094;12.434;2023-02-17T10:09:15;100248.81;;;10.58;72.57
61573;BME280;47465;43.094;12.434;2023-02-17T10:11:47;100256.75;;;10.66;71.05
61573;BME280;47465;43.094;12.434;2023-02-17T10:14:20;100227.63;;;10.04;70.76
61573;BME280;47465;43.094;12.434;2023-02-17T10:16:52;100249.78;;;10.17;71.16
61573;BME280;47465;43.094;12.434;2023-02-17T10:19:22;100256.84;;;10.37;71.56
61573;BME280;47465;43.094;12.434;2023-02-17T10:21:56;100255.91;;;10.52;70.62
61573;BME280;47465;43.094;12.434;2023-02-17T10:24:23;100247.91;;;10.52;70.89
61573;BME280;47465;43.094;12.434;2023-02-17T10:27:00;100255.84;;;10.70;70.05
61573;BME280;47465;43.094;12.434;2023-02-17T10:29:35;100247.84;;;10.82;67.39
61573;BME280;47465;43.094;12.434;2023-02-17T10:32:14;100221.16;;;10.88;67.80
61573;BME280;47465;43.094;12.434;2023-02-17T10:34:54;100228.16;;;11.08;66.42
61573;BME280;47465;43.094;12.434;2023-02-17T10:37:27;100221.94;;;11.15;67.09
61573;BME280;47465;43.094;12.434;2023-02-17T10:39:57;100230.72;;;11.28;66.08
61573;BME280;47465;43.094;12.434;2023-02-17T10:42:27;100218.22;;;11.38;65.05
61573;BME280;47465;43.094;12.434;2023-02-17T10:44:59;100231.44;;;11.47;65.09
61573;BME280;47465;43.094;12.434;2023-02-17T10:47:27;100211.06;;;11.46;64.45
61573;BME280;47465;43.094;12.434;2023-02-17T10:49:56;100198.91;;;11.05;64.89
61573;BME280;47465;43.094;12.434;2023-02-17T10:52:27;100197.06;;;11.19;65.47
61573;BME280;47465;43.094;12.434;2023-02-17T10:54:59;100212.84;;;11.42;65.37
61573;BME280;47465;43.094;12.434;2023-02-17T10:57:32;100226.13;;;11.47;64.09
61573;BME280;47465;43.094;12.434;2023-02-17T11:00:00;100208.66;;;11.10;64.46
61573;BME280;47465;43.094;12.434;2023-02-17T11:02:33;100211.25;;;11.21;66.29
61573;BME280;47465;43.094;12.434;2023-02-17T11:04:59;100198.84;;;11.17;67.94
61573;BME280;47465;43.094;12.434;2023-02-17T11:07:31;100211.13;;;11.34;66.57
61573;BME280;47465;43.094;12.434;2023-02-17T11:09:59;100201.31;;;11.40;65.28
61573;BME280;47465;43.094;12.434;2023-02-17T11:12:33;100201.41;;;11.31;65.79
61573;BME280;47465;43.094;12.434;2023-02-17T11:15:02;100192.72;;;11.00;65.39
61573;BME280;47465;43.094;12.434;2023-02-17T11:17:34;100187.59;;;10.61;66.50
61573;BME280;47465;43.094;12.434;2023-02-17T11:20:02;100162.72;;;10.68;64.96
61573;BME280;47465;43.094;12.434;2023-02-17T11:22:32;100193.66;;;10.94;64.99
61573;BME280;47465;43.094;12.434;2023-02-17T11:25:00;100163.56;;;10.81;65.98
61573;BME280;47465;43.094;12.434;2023-02-17T11:27:26;100193.69;;;10.91;66.41
61573;BME280;47465;43.094;12.434;2023-02-17T11:30:04;100176.84;;;10.83;66.38
61573;BME280;47465;43.094;12.434;2023-02-17T11:32:30;100168.88;;;10.84;67.17
61573;BME280;47465;43.094;12.434;2023-02-17T11:34:58;100182.19;;;10.84;66.17
61573;BME280;47465;43.094;12.434;2023-02-17T11:37:27;100171.69;;;10.52;63.96
61573;BME280;47465;43.094;12.434;2023-02-17T11:39:57;100163.78;;;10.26;62.79
61573;BME280;47465;43.094;12.434;2023-02-17T11:42:26;100154.03;;;10.23;62.57
61573;BME280;47465;43.094;12.434;2023-02-17T11:44:56;100176.16;;;10.41;62.61
61573;BME280;47465;43.094;12.434;2023-02-17T11:47:31;100171.69;;;10.51;61.82
61573;BME280;47465;43.094;12.434;2023-02-17T11:50:21;100178.72;;;10.65;62.87
61573;BME280;47465;43.094;12.434;2023-02-17T11:53:02;100156.56;;;10.62;61.85
61573;BME280;47465;43.094;12.434;2023-02-17T11:55:37;100183.13;;;10.73;62.45
61573;BME280;47465;43.094;12.434;2023-02-17T11:58:17;100170.75;;;10.67;61.50
61573;BME280;47465;43.094;12.434;2023-02-17T12:00:54;100170.81;;;10.50;62.35
61573;BME280;47465;43.094;12.434;2023-02-17T12:03:36;100181.44;;;10.55;61.80
61573;BME280;47465;43.094;12.434;2023-02-17T12:06:12;100153.06;;;10.49;61.10
61573;BME280;47465;43.094;12.434;2023-02-17T12:08:48;100169.84;;;10.68;59.78
61573;BME280;47465;43.094;12.434;2023-02-17T12:11:23;100145.88;;;10.74;60.16
61573;BME280;47465;43.094;12.434;2023-02-17T12:14:04;100150.22;;;10.89;60.92
61573;BME280;47465;43.094;12.434;2023-02-17T12:16:44;100164.25;;;11.08;58.07
61573;BME280;47465;43.094;12.434;2023-02-17T12:19:33;100175.63;;;11.35;58.96
61573;BME280;47465;43.094;12.434;2023-02-17T12:22:12;100143.63;;;11.38;58.17
61573;BME280;47465;43.094;12.434;2023-02-17T12:24:50;100133.94;;;11.27;57.92
61573;BME280;47465;43.094;12.434;2023-02-17T12:27:27;100166.84;;;11.22;56.83
61573;BME280;47465;43.094;12.434;2023-02-17T12:30:13;100161.56;;;11.17;57.29
61573;BME280;47465;43.094;12.434;2023-02-17T12:32:57;100163.34;;;11.15;57.37
61573;BME280;47465;43.094;12.434;2023-02-17T12:35:30;100134.03;;;11.18;57.67
61573;BME280;47465;43.094;12.434;2023-02-17T12:38:00;100161.44;;;11.31;57.96
61573;BME280;47465;43.094;12.434;2023-02-17T12:40:34;100149.91;;;11.32;57.25
61573;BME280;47465;43.094;12.434;2023-02-17T12:43:06;100159.53;;;11.51;57.57
61573;BME280;47465;43.094;12.434;2023-02-17T12:45:40;100128.28;;;11.69;58.14
61573;BME280;47465;43.094;12.434;2023-02-17T12:48:14;100149.66;;;11.61;56.87
61573;BME280;47465;43.094;12.434;2023-02-17T12:50:50;100111.47;;;11.61;56.10
61573;BME280;47465;43.094;12.434;2023-02-17T12:53:22;100124.50;;;11.91;56.58